Terminal Aerodrome Forecast
Issued by NWS

Home | Current Version | Previous Version | Text Only | Print | Product List | Glossary On
Versions: 1 2 3 4 5 6 7 8 9 10 11 12
000
FTPA31 PHFO 292336
TAFMDY
TAF
PMDY 292336Z 3000/3024 14006KT P6SM VCSH SCT015 SCT030
      TEMPO 3000/3002 3SM SHRA BR SCT015 BKN030=

USA.gov is the U.S. government's official web portal to all federal, state and local government web resources and services.